Time;durP1;ratioP1;P1;durP2;ratioP2;P2;SDS_P1;SDS_P2;PMS_P1;PMS_P2;Temp;Humidity;BMP_temperature;BMP_pressure;BME280_temperature;BME280_humidity;BME280_pressure;Samples;Min_cycle;Max_cycle;Signal;HPM_P1;HPM_P2
2021/04/22 00:00:06;;;;;;;;;;;;;;;3.26;100.00;100843.72;5093993;28;19925;-68
2021/04/22 00:02:32;;;;;;;;;;;;;;;3.28;100.00;100840.94;5093698;28;19924;-69
2021/04/22 00:04:58;;;;;;;;;;;;;;;3.36;100.00;100841.44;5093358;28;19924;-69
2021/04/22 00:07:24;;;;;;;;;;;;;;;3.43;100.00;100844.69;5075462;28;19924;-69
2021/04/22 00:09:51;;;;;;;;;;;;;;;3.46;100.00;100839.16;5093487;28;20263;-69
2021/04/22 00:12:17;;;;;;;;;;;;;;;3.45;100.00;100842.81;5093620;28;19967;-68
2021/04/22 00:14:43;;;;;;;;;;;;;;;3.47;100.00;100852.50;5093036;28;20307;-69
2021/04/22 00:17:09;;;;;;;;;;;;;;;3.44;100.00;100851.78;5093090;28;19939;-69
2021/04/22 00:19:35;;;;;;;;;;;;;;;3.42;100.00;100851.88;5075558;28;19924;-69
2021/04/22 00:22:03;;;;;;;;;;;;;;;3.44;100.00;100849.97;5093328;28;19931;-68
2021/04/22 00:24:29;;;;;;;;;;;;;;;3.49;100.00;100849.75;5075562;28;19932;-69
2021/04/22 00:26:55;;;;;;;;;;;;;;;3.51;100.00;100854.09;5093364;28;19991;-68
2021/04/22 00:29:21;;;;;;;;;;;;;;;3.54;100.00;100849.50;5093445;28;19932;-68
2021/04/22 00:31:47;;;;;;;;;;;;;;;3.57;100.00;100852.03;5075358;28;19928;-69
2021/04/22 00:34:13;;;;;;;;;;;;;;;3.63;100.00;100852.59;5092539;28;20582;-69
2021/04/22 00:36:39;;;;;;;;;;;;;;;3.66;100.00;100852.47;5093188;28;19974;-69
2021/04/22 00:39:05;;;;;;;;;;;;;;;3.68;100.00;100853.25;5093303;28;19963;-68
2021/04/22 00:41:31;;;;;;;;;;;;;;;3.74;100.00;100841.34;5093182;28;20004;-69
2021/04/22 00:43:58;;;;;;;;;;;;;;;3.75;100.00;100840.38;5074468;28;20418;-69
2021/04/22 00:46:24;;;;;;;;;;;;;;;3.78;100.00;100845.59;5092891;28;20365;-68
2021/04/22 00:48:50;;;;;;;;;;;;;;;3.81;100.00;100847.28;5093161;28;20061;-69
2021/04/22 00:51:16;;;;;;;;;;;;;;;3.87;100.00;100849.63;5074979;28;20132;-69
2021/04/22 00:53:43;;;;;;;;;;;;;;;3.89;100.00;100852.22;5092013;28;19963;-69
2021/04/22 00:56:09;;;;;;;;;;;;;;;3.92;100.00;100850.25;5092499;28;20233;-68
2021/04/22 00:58:35;;;;;;;;;;;;;;;3.95;100.00;100846.56;5092895;28;19924;-69
2021/04/22 01:01:02;;;;;;;;;;;;;;;3.95;100.00;100849.22;5093175;28;20084;-69
2021/04/22 01:03:29;;;;;;;;;;;;;;;3.95;100.00;100855.47;5092238;28;20391;-69
2021/04/22 01:05:56;;;;;;;;;;;;;;;3.95;100.00;100852.78;5092457;28;19972;-69
2021/04/22 01:08:22;;;;;;;;;;;;;;;3.96;100.00;100856.34;5092757;28;20031;-68
2021/04/22 01:10:48;;;;;;;;;;;;;;;3.97;100.00;100858.97;5092518;28;19928;-69
2021/04/22 01:13:14;;;;;;;;;;;;;;;3.97;100.00;100856.28;5092094;28;20365;-69
2021/04/22 01:15:40;;;;;;;;;;;;;;;3.97;100.00;100858.09;5091714;28;19924;-70
2021/04/22 01:18:07;;;;;;;;;;;;;;;3.98;100.00;100862.50;5092633;28;19951;-69
2021/04/22 01:20:34;;;;;;;;;;;;;;;3.98;100.00;100851.75;5092414;28;19924;-68
2021/04/22 01:23:01;;;;;;;;;;;;;;;3.99;100.00;100861.56;5073474;28;19924;-69
2021/04/22 01:25:29;;;;;;;;;;;;;;;3.99;100.00;100858.88;5092351;28;19924;-69
2021/04/22 01:27:55;;;;;;;;;;;;;;;4.00;100.00;100860.63;5092231;28;19990;-68
2021/04/22 01:30:22;;;;;;;;;;;;;;;3.99;100.00;100859.72;5074042;28;19924;-68
2021/04/22 01:32:48;;;;;;;;;;;;;;;4.00;100.00;100856.09;5091832;28;19935;-69
2021/04/22 01:35:16;;;;;;;;;;;;;;;3.98;100.00;100851.75;5091575;28;19932;-68
2021/04/22 01:37:42;;;;;;;;;;;;;;;3.97;100.00;100860.78;5092168;28;19928;-68
2021/04/22 01:40:10;;;;;;;;;;;;;;;3.97;100.00;100845.53;5092079;28;19973;-68
2021/04/22 01:42:36;;;;;;;;;;;;;;;3.99;100.00;100866.94;5091548;28;19969;-68
2021/04/22 01:45:03;;;;;;;;;;;;;;;3.98;100.00;100865.19;5091374;28;19960;-68
2021/04/22 01:47:28;;;;;;;;;;;;;;;3.98;100.00;100862.50;5091784;28;20391;-68
2021/04/22 01:49:54;;;;;;;;;;;;;;;3.96;100.00;100870.63;5091851;28;19939;-68
2021/04/22 01:52:20;;;;;;;;;;;;;;;3.95;100.00;100863.53;5091654;28;19924;-68
2021/04/22 01:54:46;;;;;;;;;;;;;;;3.94;100.00;100855.53;5073176;28;20409;-68
2021/04/22 01:57:13;;;;;;;;;;;;;;;3.92;100.00;100861.00;5073319;28;19973;-68
2021/04/22 01:59:38;;;;;;;;;;;;;;;3.93;100.00;100862.75;5091874;28;20178;-68
2021/04/22 02:02:04;;;;;;;;;;;;;;;3.97;100.00;100860.78;5091529;28;20264;-68
2021/04/22 02:04:30;;;;;;;;;;;;;;;3.97;100.00;100860.78;5091063;28;19924;-69
2021/04/22 02:06:56;;;;;;;;;;;;;;;3.98;100.00;100859.81;5091514;28;19963;-68
2021/04/22 02:09:22;;;;;;;;;;;;;;;3.95;100.00;100859.97;5091522;28;19932;-68
2021/04/22 02:11:48;;;;;;;;;;;;;;;3.92;100.00;100860.16;5091372;28;19932;-69
2021/04/22 02:14:14;;;;;;;;;;;;;;;3.90;100.00;100854.84;5091073;28;19977;-68
2021/04/22 02:16:40;;;;;;;;;;;;;;;3.88;100.00;100858.56;5091736;28;19924;-68
2021/04/22 02:19:06;;;;;;;;;;;;;;;3.89;100.00;100855.78;5091496;28;20399;-68
2021/04/22 02:21:32;;;;;;;;;;;;;;;3.87;100.00;100856.81;5090809;28;20006;-68
2021/04/22 02:23:58;;;;;;;;;;;;;;;3.85;100.00;100863.13;5091200;28;19924;-69
2021/04/22 02:26:23;;;;;;;;;;;;;;;3.90;100.00;100868.28;5091139;28;19931;-69
2021/04/22 02:28:49;;;;;;;;;;;;;;;3.89;100.00;100862.97;5073279;28;19951;-69
2021/04/22 02:31:16;;;;;;;;;;;;;;;3.85;100.00;100863.13;5091348;28;19947;-69
2021/04/22 02:33:42;;;;;;;;;;;;;;;3.81;100.00;100845.44;5090369;28;19939;-68
2021/04/22 02:36:08;;;;;;;;;;;;;;;3.82;100.00;100865.97;5091085;28;19928;-69
2021/04/22 02:38:34;;;;;;;;;;;;;;;3.79;100.00;100858.06;5090964;28;19924;-69
2021/04/22 02:41:00;;;;;;;;;;;;;;;3.80;100.00;100861.63;5091181;28;20372;-69
2021/04/22 02:43:26;;;;;;;;;;;;;;;3.75;100.00;100861.00;5091009;28;20019;-69
2021/04/22 02:45:52;;;;;;;;;;;;;;;3.72;100.00;100863.84;5090926;28;20414;-68
2021/04/22 02:48:19;;;;;;;;;;;;;;;3.69;100.00;100867.56;5091186;28;20310;-69
2021/04/22 02:50:46;;;;;;;;;;;;;;;3.70;100.00;100869.28;5072999;28;20398;-68
2021/04/22 02:53:13;;;;;;;;;;;;;;;3.68;100.00;100863.97;5090474;28;19932;-69
2021/04/22 02:55:41;;;;;;;;;;;;;;;3.68;100.00;100868.50;5090388;28;19931;-68
2021/04/22 02:58:07;;;;;;;;;;;;;;;3.65;100.00;100861.47;5090877;28;20484;-68
2021/04/22 03:00:33;;;;;;;;;;;;;;;3.68;100.00;100865.81;5090868;28;19955;-68
2021/04/22 03:02:59;;;;;;;;;;;;;;;3.68;100.00;100871.19;5090691;28;19971;-69
2021/04/22 03:05:26;;;;;;;;;;;;;;;3.71;100.00;100872.84;5090699;28;19931;-69
2021/04/22 03:07:51;;;;;;;;;;;;;;;3.68;100.00;100865.81;5090734;28;19924;-69
2021/04/22 03:10:18;;;;;;;;;;;;;;;3.69;100.00;100864.88;5091146;28;19931;-68
2021/04/22 03:12:44;;;;;;;;;;;;;;;3.71;100.00;100868.31;5090496;28;19924;-68
2021/04/22 03:15:11;;;;;;;;;;;;;;;3.71;100.00;100872.84;5090168;28;19955;-68
2021/04/22 03:17:37;;;;;;;;;;;;;;;3.69;100.00;100875.59;5090778;28;19928;-68
2021/04/22 03:20:03;;;;;;;;;;;;;;;3.69;100.00;100867.56;5090803;28;20313;-68
2021/04/22 03:22:31;;;;;;;;;;;;;;;3.68;100.00;100877.41;5090768;28;20326;-69
2021/04/22 03:24:56;;;;;;;;;;;;;;;3.66;100.00;100879.31;5090819;28;20457;-69
2021/04/22 03:27:22;;;;;;;;;;;;;;;3.65;100.00;100874.88;5090841;28;19980;-69
2021/04/22 03:29:48;;;;;;;;;;;;;;;3.64;100.00;100878.50;5090857;28;20327;-69
2021/04/22 03:32:14;;;;;;;;;;;;;;;3.66;100.00;100879.31;5090921;28;20326;-69
2021/04/22 03:34:40;;;;;;;;;;;;;;;3.65;100.00;100885.63;5071952;28;19924;-69
2021/04/22 03:37:05;;;;;;;;;;;;;;;3.61;100.00;100881.34;5091165;28;19924;-69
2021/04/22 03:39:32;;;;;;;;;;;;;;;3.63;100.00;100892.00;5091252;28;19959;-69
2021/04/22 03:41:58;;;;;;;;;;;;;;;3.62;100.00;100890.25;5091394;28;20013;-69
2021/04/22 03:44:24;;;;;;;;;;;;;;;3.63;100.00;100881.28;5090724;28;19969;-69
2021/04/22 03:46:49;;;;;;;;;;;;;;;3.59;100.00;100882.38;5093612;28;19924;-69
2021/04/22 03:49:15;;;;;;;;;;;;;;;3.57;100.00;100895.88;5094224;28;19924;-68
2021/04/22 03:51:41;;;;;;;;;;;;;;;3.49;100.00;100882.81;5094082;28;20370;-68
2021/04/22 03:54:07;;;;;;;;;;;;;;;3.43;100.00;100884.94;5094033;28;19965;-68
2021/04/22 03:56:33;;;;;;;;;;;;;;;3.33;100.00;100890.75;5094016;28;19974;-68
2021/04/22 03:58:59;;;;;;;;;;;;;;;3.27;100.00;100884.81;5094245;28;19924;-68
2021/04/22 04:01:25;;;;;;;;;;;;;;;3.21;100.00;100882.41;5094133;28;20303;-68
2021/04/22 04:03:52;;;;;;;;;;;;;;;3.16;100.00;100877.28;5075380;28;21563;-67
2021/04/22 04:06:18;;;;;;;;;;;;;;;3.10;100.00;100891.88;5093865;28;20503;-69
2021/04/22 04:08:44;;;;;;;;;;;;;;;3.09;100.00;100883.91;5094110;28;19947;-70
2021/04/22 04:11:09;;;;;;;;;;;;;;;3.07;100.00;100881.25;5093850;28;20402;-70
2021/04/22 04:13:36;;;;;;;;;;;;;;;3.06;100.00;100892.97;5075099;28;19991;-69
2021/04/22 04:16:02;;;;;;;;;;;;;;;3.05;100.00;100885.84;5093222;28;19974;-70
2021/04/22 04:18:28;;;;;;;;;;;;;;;3.06;100.00;100895.63;5093769;28;20014;-70
2021/04/22 04:20:53;;;;;;;;;;;;;;;3.08;100.00;100892.88;5093691;28;19970;-70
2021/04/22 04:23:19;;;;;;;;;;;;;;;3.09;100.00;100890.13;5092932;28;19924;-70
2021/04/22 04:25:45;;;;;;;;;;;;;;;3.10;100.00;100896.34;5091606;28;19931;-70
2021/04/22 04:28:11;;;;;;;;;;;;;;;3.10;100.00;100893.66;5093558;28;20222;-70
2021/04/22 04:30:38;;;;;;;;;;;;;;;3.10;100.00;100891.88;5092737;28;20017;-70
2021/04/22 04:33:04;;;;;;;;;;;;;;;3.08;100.00;100903.59;5092471;28;20009;-70
2021/04/22 04:35:30;;;;;;;;;;;;;;;3.11;100.00;100900.78;5092776;28;19955;-70
2021/04/22 04:37:56;;;;;;;;;;;;;;;3.17;100.00;100908.53;5093416;28;20470;-70
2021/04/22 04:40:22;;;;;;;;;;;;;;;3.25;100.00;100900.13;5093832;28;19931;-69
2021/04/22 04:42:48;;;;;;;;;;;;;;;3.29;100.00;100901.72;5093216;28;19924;-70
2021/04/22 04:45:15;;;;;;;;;;;;;;;3.33;100.00;100903.31;5093288;28;19967;-70
2021/04/22 04:47:42;;;;;;;;;;;;;;;3.37;100.00;100907.59;5092773;28;20020;-69
2021/04/22 04:50:08;;;;;;;;;;;;;;;3.38;100.00;100912.03;5093223;28;19955;-69
2021/04/22 04:52:34;;;;;;;;;;;;;;;3.42;100.00;100915.41;5092853;28;20287;-70
2021/04/22 04:55:00;;;;;;;;;;;;;;;3.46;100.00;100914.31;5092735;28;20382;-70
2021/04/22 04:57:25;;;;;;;;;;;;;;;3.58;100.00;100920.91;5091597;28;19939;-70
2021/04/22 04:59:51;;;;;;;;;;;;;;;3.67;100.00;100917.75;5092774;28;20341;-70
2021/04/22 05:02:17;;;;;;;;;;;;;;;3.78;100.00;100919.91;5092637;28;19924;-70
2021/04/22 05:04:44;;;;;;;;;;;;;;;3.84;100.00;100922.31;5074223;28;19927;-70
2021/04/22 05:07:10;;;;;;;;;;;;;;;3.89;100.00;100916.69;5091907;28;19931;-70
2021/04/22 05:09:35;;;;;;;;;;;;;;;3.96;100.00;100920.81;5092488;28;19928;-70
2021/04/22 05:12:01;;;;;;;;;;;;;;;4.04;100.00;100921.28;5091811;28;20444;-70
2021/04/22 05:14:27;;;;;;;;;;;;;;;4.13;100.00;100919.94;5073100;28;19924;-70
2021/04/22 05:16:53;;;;;;;;;;;;;;;4.22;100.00;100923.97;5092320;28;20231;-69
2021/04/22 05:19:19;;;;;;;;;;;;;;;4.23;100.00;100920.34;5092256;28;19931;-69
2021/04/22 05:21:45;;;;;;;;;;;;;;;4.29;100.00;100930.78;5091970;28;19928;-69
2021/04/22 05:24:12;;;;;;;;;;;;;;;4.28;100.00;100929.91;5091795;28;20021;-70
2021/04/22 05:26:38;;;;;;;;;;;;;;;4.32;100.00;100925.25;5091664;28;19931;-69
2021/04/22 05:29:04;;;;;;;;;;;;;;;4.36;100.00;100932.22;5092548;28;20027;-69
2021/04/22 05:31:30;;;;;;;;;;;;;;;4.48;100.00;100933.41;5091923;28;19970;-69
2021/04/22 05:33:56;;;;;;;;;;;;;;;4.43;100.00;100927.38;5091798;28;20007;-69
2021/04/22 05:36:22;;;;;;;;;;;;;;;4.46;100.00;100911.97;5091781;28;19970;-70
2021/04/22 05:38:48;;;;;;;;;;;;;;;4.63;100.00;100935.25;5091939;28;19978;-70
2021/04/22 05:41:14;;;;;;;;;;;;;;;4.66;100.00;100928.84;5091735;28;19956;-69
2021/04/22 05:43:40;;;;;;;;;;;;;;;4.89;100.00;100935.69;5091162;28;19965;-69
2021/04/22 05:46:06;;;;;;;;;;;;;;;4.97;100.00;100941.53;5089289;28;20454;-69
2021/04/22 05:48:32;;;;;;;;;;;;;;;4.94;100.00;100927.38;5075819;28;19924;-70
2021/04/22 05:50:58;;;;;;;;;;;;;;;5.04;100.00;100942.06;5088271;28;20337;-69
2021/04/22 05:53:24;;;;;;;;;;;;;;;5.04;100.00;100944.75;5089064;28;20382;-69
2021/04/22 05:55:50;;;;;;;;;;;;;;;5.18;100.00;100952.06;5089235;28;19981;-70
2021/04/22 05:58:16;;;;;;;;;;;;;;;5.10;100.00;100941.72;5091157;28;19924;-70
2021/04/22 06:00:42;;;;;;;;;;;;;;;5.14;100.00;100948.66;5091066;28;19939;-69
2021/04/22 06:03:08;;;;;;;;;;;;;;;5.28;100.00;100947.06;5090795;28;19935;-69
2021/04/22 06:05:35;;;;;;;;;;;;;;;5.34;100.00;100949.38;5055830;28;19970;-70
2021/04/22 06:08:01;;;;;;;;;;;;;;;5.35;100.00;100948.44;5090824;28;19931;-69
2021/04/22 06:10:26;;;;;;;;;;;;;;;5.36;100.00;100952.88;5073404;28;19924;-71
2021/04/22 06:12:53;;;;;;;;;;;;;;;5.24;100.00;100946.34;5072198;28;19966;-71
2021/04/22 06:15:20;;;;;;;;;;;;;;;5.13;100.00;100949.63;5090815;28;20385;-72
2021/04/22 06:17:46;;;;;;;;;;;;;;;5.20;100.00;100947.47;5072748;28;19931;-71
2021/04/22 06:20:14;;;;;;;;;;;;;;;5.27;100.00;100953.38;5090020;28;19924;-71
2021/04/22 06:22:40;;;;;;;;;;;;;;;5.42;100.00;100955.22;5091012;28;19946;-71
2021/04/22 06:25:06;;;;;;;;;;;;;;;5.60;100.00;100947.94;5086759;28;20348;-72
2021/04/22 06:27:32;;;;;;;;;;;;;;;5.85;100.00;100958.16;5053261;28;19932;-71
2021/04/22 06:30:00;;;;;;;;;;;;;;;6.33;100.00;100966.19;5073776;28;19924;-71
2021/04/22 06:32:26;;;;;;;;;;;;;;;6.17;100.00;100959.97;5090545;28;19924;-72
2021/04/22 06:34:52;;;;;;;;;;;;;;;6.26;100.00;100963.94;5089625;28;19977;-70
2021/04/22 06:37:18;;;;;;;;;;;;;;;6.70;100.00;100955.00;5090946;28;19977;-71
2021/04/22 06:39:43;;;;;;;;;;;;;;;7.03;100.00;100957.44;5072677;28;19982;-70
2021/04/22 06:42:09;;;;;;;;;;;;;;;7.42;98.66;100952.28;5090057;28;19924;-71
2021/04/22 06:44:36;;;;;;;;;;;;;;;7.37;99.00;100965.22;5090172;28;19931;-70
2021/04/22 06:47:03;;;;;;;;;;;;;;;7.81;98.63;100968.72;5072161;28;19924;-70
2021/04/22 06:49:29;;;;;;;;;;;;;;;8.54;94.09;100962.91;5091033;28;19924;-70
2021/04/22 06:51:55;;;;;;;;;;;;;;;8.54;89.40;100962.91;5090387;28;19928;-71
2021/04/22 06:54:21;;;;;;;;;;;;;;;8.27;88.09;100965.66;5090590;28;19924;-71
2021/04/22 06:56:48;;;;;;;;;;;;;;;8.16;89.58;100966.38;5090363;28;19924;-71
2021/04/22 06:59:14;;;;;;;;;;;;;;;7.69;92.97;100975.78;5072272;28;19959;-71
2021/04/22 07:01:40;;;;;;;;;;;;;;;7.40;93.82;100975.81;5090482;28;20444;-70
2021/04/22 07:04:07;;;;;;;;;;;;;;;6.99;95.92;100979.31;5091045;28;20383;-70
2021/04/22 07:06:32;;;;;;;;;;;;;;;7.96;97.01;100978.50;5090388;28;19924;-70
2021/04/22 07:08:58;;;;;;;;;;;;;;;8.20;92.71;100980.53;5072515;28;20042;-70
2021/04/22 07:11:24;;;;;;;;;;;;;;;8.05;90.33;100960.81;5090519;28;20026;-71
2021/04/22 07:13:50;;;;;;;;;;;;;;;8.09;91.00;100981.25;5090116;28;19932;-71
2021/04/22 07:16:16;;;;;;;;;;;;;;;7.42;93.41;100982.00;5090184;28;20374;-70
2021/04/22 07:18:42;;;;;;;;;;;;;;;7.75;93.18;100967.28;5090903;28;19924;-70
2021/04/22 07:21:08;;;;;;;;;;;;;;;8.27;90.00;100975.59;5092627;28;19928;-70
2021/04/22 07:23:34;;;;;;;;;;;;;;;8.27;87.90;100981.88;5094426;28;20041;-70
2021/04/22 07:26:00;;;;;;;;;;;;;;;7.97;90.11;100982.09;5093960;28;19950;-70
2021/04/22 07:28:26;;;;;;;;;;;;;;;7.58;91.16;100995.41;5093949;28;19924;-69
2021/04/22 07:30:52;;;;;;;;;;;;;;;8.18;90.13;100996.03;5094084;28;19938;-70
2021/04/22 07:33:18;;;;;;;;;;;;;;;8.11;90.45;100994.69;5092937;28;20003;-70
2021/04/22 07:35:44;;;;;;;;;;;;;;;7.86;91.44;100997.16;5109645;28;20008;-70
2021/04/22 07:38:12;;;;;;;;;;;;;;;7.72;92.46;100999.91;5046255;28;19974;-70
2021/04/22 07:40:38;;;;;;;;;;;;;;;8.18;92.12;101004.13;5075008;28;19924;-70
2021/04/22 07:43:04;;;;;;;;;;;;;;;8.20;89.23;101002.19;5093601;28;20295;-70
2021/04/22 07:45:31;;;;;;;;;;;;;;;8.23;90.57;101009.22;5093490;28;19930;-70
2021/04/22 07:47:57;;;;;;;;;;;;;;;8.26;89.24;101011.72;5094256;28;19935;-72
2021/04/22 07:50:23;;;;;;;;;;;;;;;8.35;89.25;101027.31;5092989;28;19967;-70
2021/04/22 07:52:50;;;;;;;;;;;;;;;8.45;88.36;101022.19;5092592;28;19924;-72
2021/04/22 07:55:18;;;;;;;;;;;;;;;8.84;86.67;101018.59;5093133;28;19931;-70
2021/04/22 07:57:44;;;;;;;;;;;;;;;9.83;80.39;101017.00;5093032;28;20362;-70
2021/04/22 08:00:11;;;;;;;;;;;;;;;10.19;77.63;101011.66;5074088;28;20402;-70
2021/04/22 08:02:37;;;;;;;;;;;;;;;10.77;71.75;101021.81;5093080;28;19932;-70
2021/04/22 08:05:03;;;;;;;;;;;;;;;10.13;67.85;101013.00;5093402;28;20018;-70
2021/04/22 08:07:29;;;;;;;;;;;;;;;9.84;71.62;101016.03;5075444;28;19950;-70
2021/04/22 08:09:55;;;;;;;;;;;;;;;10.07;71.71;101016.16;5092884;28;19924;-70
2021/04/22 08:12:21;;;;;;;;;;;;;;;10.17;73.02;101022.66;5093288;28;19924;-71
2021/04/22 08:14:47;;;;;;;;;;;;;;;10.61;70.89;101012.16;5092910;28;19924;-72
2021/04/22 08:17:13;;;;;;;;;;;;;;;9.57;73.27;101015.31;5092824;28;19935;-71
2021/04/22 08:19:39;;;;;;;;;;;;;;;9.37;74.68;101020.34;5093399;28;19924;-70
2021/04/22 08:22:05;;;;;;;;;;;;;;;9.12;75.46;101021.22;5093320;28;19924;-70
2021/04/22 08:24:31;;;;;;;;;;;;;;;10.57;71.20;101018.81;5073326;28;19924;-70
2021/04/22 08:26:57;;;;;;;;;;;;;;;10.82;66.87;101023.22;5092754;28;20054;-71
2021/04/22 08:29:23;;;;;;;;;;;;;;;10.44;65.44;101010.72;5074726;28;20097;-70
2021/04/22 08:31:49;;;;;;;;;;;;;;;11.14;64.64;101016.22;5092414;28;20411;-69
2021/04/22 08:34:15;;;;;;;;;;;;;;;12.04;61.79;101001.75;5092267;28;19924;-69
2021/04/22 08:36:41;;;;;;;;;;;;;;;12.53;58.92;101013.97;5092559;28;19924;-68
2021/04/22 08:39:08;;;;;;;;;;;;;;;12.70;57.34;101006.19;5092996;28;20450;-69
2021/04/22 08:41:35;;;;;;;;;;;;;;;13.02;55.41;101003.41;5092815;28;19924;-69
2021/04/22 08:44:02;;;;;;;;;;;;;;;11.79;58.07;101001.03;5091124;28;19924;-69
2021/04/22 08:46:29;;;;;;;;;;;;;;;10.90;59.70;101009.00;5092342;28;19931;-69
2021/04/22 08:48:55;;;;;;;;;;;;;;;10.27;63.22;101008.38;5091798;28;20396;-69
2021/04/22 08:51:21;;;;;;;;;;;;;;;10.22;64.69;101001.47;5092118;28;19924;-69
2021/04/22 08:53:47;;;;;;;;;;;;;;;10.91;62.38;101004.47;5092338;28;20445;-69
2021/04/22 08:56:14;;;;;;;;;;;;;;;12.23;61.14;101001.94;5091897;28;19935;-68
2021/04/22 08:58:41;;;;;;;;;;;;;;;11.34;60.30;101003.75;5092344;28;19924;-69
2021/04/22 09:01:07;;;;;;;;;;;;;;;10.76;61.80;101015.53;5092511;28;19924;-68
2021/04/22 09:03:34;;;;;;;;;;;;;;;10.63;63.85;101012.03;5091595;28;19928;-68
2021/04/22 09:06:01;;;;;;;;;;;;;;;10.47;63.84;101037.63;5072402;28;19928;-69
2021/04/22 09:08:31;;;;;;;;;;;;;;;10.40;64.82;101016.50;5087202;28;20391;-68
2021/04/22 09:10:57;;;;;;;;;;;;;;;10.95;61.45;101024.97;5091487;28;19971;-68
2021/04/22 09:13:22;;;;;;;;;;;;;;;12.20;59.10;101018.53;5091682;28;19924;-69
2021/04/22 09:15:49;;;;;;;;;;;;;;;11.98;54.85;101015.88;5091950;28;19973;-69
2021/04/22 09:18:16;;;;;;;;;;;;;;;11.95;54.10;101018.84;5091869;28;20267;-70
2021/04/22 09:20:44;;;;;;;;;;;;;;;13.23;51.45;101022.47;5091911;28;19924;-70
2021/04/22 09:23:19;;;;;;;;;;;;;;;13.14;51.28;101015.09;5091876;28;19939;-70
2021/04/22 09:25:46;;;;;;;;;;;;;;;13.36;51.49;101022.28;5091371;28;20026;-70
2021/04/22 09:28:12;;;;;;;;;;;;;;;12.73;52.01;101025.00;5092235;28;20027;-69
2021/04/22 09:30:40;;;;;;;;;;;;;;;11.61;52.79;101024.28;5092267;28;19932;-69
2021/04/22 09:33:07;;;;;;;;;;;;;;;11.71;54.56;101027.97;5091160;28;19924;-68
2021/04/22 09:35:33;;;;;;;;;;;;;;;12.04;52.76;101027.09;5091192;28;19963;-69
2021/04/22 09:38:00;;;;;;;;;;;;;;;12.39;50.66;101015.13;5091359;28;19932;-69
2021/04/22 09:40:29;;;;;;;;;;;;;;;12.53;50.51;101013.97;5091364;28;19925;-69
2021/04/22 09:42:56;;;;;;;;;;;;;;;12.72;50.11;101017.84;5090818;28;19935;-69
2021/04/22 09:45:23;;;;;;;;;;;;;;;13.70;48.59;101015.69;5091760;28;19924;-69
2021/04/22 09:47:49;;;;;;;;;;;;;;;13.26;47.74;101012.31;5091832;28;20221;-67
2021/04/22 09:50:17;;;;;;;;;;;;;;;12.29;48.48;101016.03;5091715;28;19931;-68
2021/04/22 09:52:45;;;;;;;;;;;;;;;12.48;48.35;101024.38;5088841;28;19924;-68
2021/04/22 09:55:13;;;;;;;;;;;;;;;12.84;49.51;101027.69;5090419;28;20023;-68
2021/04/22 09:57:39;;;;;;;;;;;;;;;13.34;46.19;101023.41;5088406;28;19924;-68
2021/04/22 10:00:06;;;;;;;;;;;;;;;14.68;45.43;101021.31;5091378;28;19924;-68
2021/04/22 10:02:40;;;;;;;;;;;;;;;14.26;42.32;101019.69;5091261;28;19924;-68
2021/04/22 10:05:15;;;;;;;;;;;;;;;13.41;44.05;101013.69;5089792;28;20072;-68
2021/04/22 10:07:40;;;;;;;;;;;;;;;13.19;45.58;101026.47;5075278;28;19935;-69
2021/04/22 10:10:14;;;;;;;;;;;;;;;12.00;46.29;101027.50;5072688;28;19928;-67
2021/04/22 10:12:40;;;;;;;;;;;;;;;11.85;47.28;101027.72;5091205;28;19924;-68
2021/04/22 10:15:09;;;;;;;;;;;;;;;12.37;46.19;101038.00;5098064;28;20394;-68
2021/04/22 10:17:35;;;;;;;;;;;;;;;14.03;44.14;101035.44;5072295;28;19966;-69
2021/04/22 10:20:04;;;;;;;;;;;;;;;12.74;44.14;101029.44;5091528;28;20152;-69
2021/04/22 10:22:30;;;;;;;;;;;;;;;13.77;43.72;101026.91;5090761;28;19924;-69
2021/04/22 10:24:56;;;;;;;;;;;;;;;13.09;43.87;101028.25;5090882;28;20032;-69
2021/04/22 10:27:24;;;;;;;;;;;;;;;12.90;44.70;101029.84;5090844;28;19994;-69
2021/04/22 10:29:50;;;;;;;;;;;;;;;13.71;42.56;101028.34;5088798;28;20062;-68
2021/04/22 10:32:16;;;;;;;;;;;;;;;13.88;41.60;101033.13;5090670;28;19928;-69
2021/04/22 10:34:42;;;;;;;;;;;;;;;13.08;44.12;101032.00;5090069;28;19964;-69
2021/04/22 10:37:08;;;;;;;;;;;;;;;12.50;43.95;101037.84;5090126;28;20468;-69
2021/04/22 10:39:34;;;;;;;;;;;;;;;12.39;45.14;101036.03;5090707;28;19932;-69
2021/04/22 10:42:00;;;;;;;;;;;;;;;12.46;45.36;101031.78;5090170;28;19934;-69
2021/04/22 10:44:31;;;;;;;;;;;;;;;12.42;46.36;101027.59;5090263;28;19924;-69
2021/04/22 10:46:58;;;;;;;;;;;;;;;11.98;45.27;101027.59;5090389;28;20466;-69
2021/04/22 10:49:24;;;;;;;;;;;;;;;11.55;47.90;101045.53;5090795;28;19985;-68
2021/04/22 10:51:50;;;;;;;;;;;;;;;11.39;49.09;101055.91;5090266;28;20394;-68
2021/04/22 10:54:16;;;;;;;;;;;;;;;10.83;48.90;101049.34;5070565;28;19955;-68
2021/04/22 10:56:42;;;;;;;;;;;;;;;10.62;50.75;101051.00;5092785;28;19990;-68
2021/04/22 10:59:18;;;;;;;;;;;;;;;11.43;51.87;101051.94;5094920;28;20011;-69
2021/04/22 11:01:45;;;;;;;;;;;;;;;12.56;49.25;101031.91;5089364;28;20391;-69
2021/04/22 11:04:11;;;;;;;;;;;;;;;13.63;46.17;101060.88;5095164;28;19924;-69
2021/04/22 11:06:38;;;;;;;;;;;;;;;14.10;44.49;101030.31;5076588;28;20394;-68
2021/04/22 11:09:15;;;;;;;;;;;;;;;13.24;43.64;101026.03;5095047;28;20274;-69
2021/04/22 11:11:54;;;;;;;;;;;;;;;12.27;44.45;101039.81;5094358;28;19969;-69
2021/04/22 11:14:20;;;;;;;;;;;;;;;12.69;44.61;101045.31;5094488;28;19931;-70
2021/04/22 11:16:50;;;;;;;;;;;;;;;13.00;43.74;101042.69;5094489;28;19928;-69
2021/04/22 11:19:17;;;;;;;;;;;;;;;12.74;45.22;101043.06;5094748;28;19967;-69
2021/04/22 11:21:48;;;;;;;;;;;;;;;12.00;44.53;101041.09;5076561;28;19966;-69
2021/04/22 11:24:25;;;;;;;;;;;;;;;11.56;46.95;101035.53;5094641;28;19928;-69
2021/04/22 11:26:57;;;;;;;;;;;;;;;11.53;45.44;101042.09;5094509;28;20398;-69
2021/04/22 11:29:23;;;;;;;;;;;;;;;11.51;46.09;101038.59;5076587;28;20074;-69
2021/04/22 11:31:51;;;;;;;;;;;;;;;11.13;46.08;101036.22;5094155;28;19924;-69
2021/04/22 11:34:17;;;;;;;;;;;;;;;11.18;48.75;101047.59;5094711;28;19924;-69
2021/04/22 11:36:47;;;;;;;;;;;;;;;10.51;47.68;101052.69;5094045;28;20013;-70
2021/04/22 11:39:13;;;;;;;;;;;;;;;10.27;48.65;101047.22;5094286;28;20310;-69
2021/04/22 11:41:38;;;;;;;;;;;;;;;10.10;50.89;101053.94;5093976;28;19931;-69
2021/04/22 11:44:07;;;;;;;;;;;;;;;9.96;55.96;101073.06;5094175;28;20000;-69
2021/04/22 11:46:34;;;;;;;;;;;;;;;9.76;57.27;101056.41;5094008;28;20376;-69
2021/04/22 11:49:00;;;;;;;;;;;;;;;10.00;60.33;101064.56;5094245;28;19938;-69
2021/04/22 11:51:32;;;;;;;;;;;;;;;10.36;60.95;101056.56;5094137;28;19963;-69
2021/04/22 11:53:58;;;;;;;;;;;;;;;10.57;56.65;101058.63;5094251;28;19935;-69
2021/04/22 11:56:25;;;;;;;;;;;;;;;10.67;54.27;101059.66;5093651;28;19924;-68
2021/04/22 11:58:51;;;;;;;;;;;;;;;10.51;52.63;101055.41;5075972;28;19967;-68
2021/04/22 12:01:17;;;;;;;;;;;;;;;10.08;48.94;101045.03;5093964;28;20023;-69
2021/04/22 12:03:43;;;;;;;;;;;;;;;10.12;50.72;101051.97;5093176;28;19973;-68
2021/04/22 12:06:10;;;;;;;;;;;;;;;10.62;52.09;101051.91;5093323;28;19928;-69
2021/04/22 12:08:37;;;;;;;;;;;;;;;10.85;50.83;101035.66;5093809;28;19932;-69
2021/04/22 12:11:04;;;;;;;;;;;;;;;10.75;49.71;101043.66;5093948;28;19959;-69
2021/04/22 12:13:31;;;;;;;;;;;;;;;10.38;48.74;101039.19;5093369;28;19924;-69
2021/04/22 12:15:58;;;;;;;;;;;;;;;10.74;51.64;101050.06;5093888;28;19971;-68
2021/04/22 12:18:25;;;;;;;;;;;;;;;10.64;48.45;101046.34;5093649;28;20117;-68
2021/04/22 12:20:52;;;;;;;;;;;;;;;10.78;49.42;101045.28;5093446;28;19931;-68
2021/04/22 12:23:28;;;;;;;;;;;;;;;10.89;47.85;101043.47;5092748;28;19924;-68
2021/04/22 12:25:53;;;;;;;;;;;;;;;10.75;47.37;101038.22;5092953;28;20014;-68
2021/04/22 12:28:19;;;;;;;;;;;;;;;10.72;47.43;101047.47;5093426;28;19924;-68
2021/04/22 12:30:46;;;;;;;;;;;;;;;10.74;48.65;101050.06;5093177;28;19985;-68
2021/04/22 12:33:16;;;;;;;;;;;;;;;10.75;47.28;101040.94;5093374;28;19925;-68